sensor_id;sensor_type;location;lat;lon;timestamp;P1;durP1;ratioP1;P2;durP2;ratioP2
44446;SDS011;30152;52.066;5.358;2023-06-10T06:46:37;18.17;;;7.03;;
44446;SDS011;30152;52.066;5.358;2023-06-10T06:49:03;18.25;;;7.32;;
44446;SDS011;30152;52.066;5.358;2023-06-10T06:51:29;14.55;;;6.50;;
44446;SDS011;30152;52.066;5.358;2023-06-10T06:53:55;13.88;;;6.25;;
44446;SDS011;30152;52.066;5.358;2023-06-10T06:56:25;11.82;;;6.28;;
44446;SDS011;30152;52.066;5.358;2023-06-10T06:58:53;17.83;;;6.35;;
44446;SDS011;30152;52.066;5.358;2023-06-10T07:01:18;14.35;;;6.82;;
44446;SDS011;30152;52.066;5.358;2023-06-10T07:03:45;12.13;;;6.07;;
44446;SDS011;30152;52.066;5.358;2023-06-10T07:06:12;10.90;;;5.45;;
44446;SDS011;30152;52.066;5.358;2023-06-10T07:08:38;11.40;;;6.15;;
44446;SDS011;30152;52.066;5.358;2023-06-10T07:11:04;12.80;;;6.03;;
44446;SDS011;30152;52.066;5.358;2023-06-10T07:13:30;16.65;;;6.15;;
44446;SDS011;30152;52.066;5.358;2023-06-10T07:15:56;16.02;;;6.20;;
44446;SDS011;30152;52.066;5.358;2023-06-10T07:18:22;17.25;;;6.68;;
44446;SDS011;30152;52.066;5.358;2023-06-10T07:20:48;12.55;;;5.95;;
44446;SDS011;30152;52.066;5.358;2023-06-10T07:23:14;13.52;;;5.60;;
44446;SDS011;30152;52.066;5.358;2023-06-10T07:25:41;11.63;;;6.00;;
44446;SDS011;30152;52.066;5.358;2023-06-10T07:28:06;13.30;;;5.65;;
44446;SDS011;30152;52.066;5.358;2023-06-10T07:30:32;14.02;;;6.40;;
44446;SDS011;30152;52.066;5.358;2023-06-10T07:33:00;11.25;;;5.75;;
44446;SDS011;30152;52.066;5.358;2023-06-10T07:35:27;12.27;;;5.88;;
44446;SDS011;30152;52.066;5.358;2023-06-10T07:37:53;13.77;;;6.60;;
44446;SDS011;30152;52.066;5.358;2023-06-10T07:40:19;12.60;;;6.05;;
44446;SDS011;30152;52.066;5.358;2023-06-10T07:42:45;12.25;;;5.55;;
44446;SDS011;30152;52.066;5.358;2023-06-10T07:45:10;13.20;;;5.28;;
44446;SDS011;30152;52.066;5.358;2023-06-10T07:47:36;12.70;;;6.10;;
44446;SDS011;30152;52.066;5.358;2023-06-10T07:50:02;13.63;;;5.57;;
44446;SDS011;30152;52.066;5.358;2023-06-10T07:52:29;12.38;;;5.25;;
44446;SDS011;30152;52.066;5.358;2023-06-10T07:54:56;12.50;;;5.20;;
44446;SDS011;30152;52.066;5.358;2023-06-10T07:57:22;11.45;;;5.70;;
44446;SDS011;30152;52.066;5.358;2023-06-10T07:59:48;11.57;;;4.90;;
44446;SDS011;30152;52.066;5.358;2023-06-10T08:02:15;12.98;;;6.18;;
44446;SDS011;30152;52.066;5.358;2023-06-10T08:04:41;11.38;;;5.20;;
44446;SDS011;30152;52.066;5.358;2023-06-10T08:07:07;12.50;;;5.60;;
44446;SDS011;30152;52.066;5.358;2023-06-10T08:09:33;10.90;;;5.68;;
44446;SDS011;30152;52.066;5.358;2023-06-10T08:11:59;14.52;;;5.35;;
44446;SDS011;30152;52.066;5.358;2023-06-10T08:14:25;11.15;;;5.15;;
44446;SDS011;30152;52.066;5.358;2023-06-10T08:16:51;14.40;;;5.80;;
44446;SDS011;30152;52.066;5.358;2023-06-10T08:19:17;11.60;;;5.32;;
44446;SDS011;30152;52.066;5.358;2023-06-10T08:21:43;12.25;;;5.15;;
44446;SDS011;30152;52.066;5.358;2023-06-10T08:24:09;11.63;;;4.97;;
44446;SDS011;30152;52.066;5.358;2023-06-10T08:26:35;14.00;;;5.95;;
44446;SDS011;30152;52.066;5.358;2023-06-10T08:29:01;11.77;;;5.47;;
44446;SDS011;30152;52.066;5.358;2023-06-10T08:31:27;13.88;;;4.95;;
44446;SDS011;30152;52.066;5.358;2023-06-10T08:33:53;12.60;;;4.95;;
44446;SDS011;30152;52.066;5.358;2023-06-10T08:36:19;11.38;;;5.60;;
44446;SDS011;30152;52.066;5.358;2023-06-10T08:38:45;9.23;;;4.80;;
44446;SDS011;30152;52.066;5.358;2023-06-10T08:41:12;16.10;;;5.55;;
44446;SDS011;30152;52.066;5.358;2023-06-10T08:43:42;12.85;;;5.68;;
44446;SDS011;30152;52.066;5.358;2023-06-10T08:46:09;13.88;;;5.25;;
44446;SDS011;30152;52.066;5.358;2023-06-10T08:48:37;14.20;;;4.80;;
44446;SDS011;30152;52.066;5.358;2023-06-10T08:51:04;14.50;;;5.45;;
44446;SDS011;30152;52.066;5.358;2023-06-10T08:53:33;12.93;;;5.10;;
44446;SDS011;30152;52.066;5.358;2023-06-10T08:56:02;11.18;;;5.15;;
44446;SDS011;30152;52.066;5.358;2023-06-10T08:58:29;15.43;;;5.28;;
44446;SDS011;30152;52.066;5.358;2023-06-10T09:00:58;10.25;;;5.10;;
44446;SDS011;30152;52.066;5.358;2023-06-10T09:03:24;10.52;;;5.18;;
44446;SDS011;30152;52.066;5.358;2023-06-10T09:05:51;13.90;;;4.57;;
44446;SDS011;30152;52.066;5.358;2023-06-10T09:08:16;14.48;;;4.82;;
44446;SDS011;30152;52.066;5.358;2023-06-10T09:10:43;12.65;;;4.60;;
44446;SDS011;30152;52.066;5.358;2023-06-10T09:13:09;10.68;;;4.53;;
44446;SDS011;30152;52.066;5.358;2023-06-10T09:15:35;9.68;;;4.43;;
44446;SDS011;30152;52.066;5.358;2023-06-10T09:18:01;10.23;;;5.15;;
44446;SDS011;30152;52.066;5.358;2023-06-10T09:20:27;14.07;;;4.72;;
44446;SDS011;30152;52.066;5.358;2023-06-10T09:22:53;12.23;;;4.50;;
44446;SDS011;30152;52.066;5.358;2023-06-10T09:25:20;13.77;;;4.40;;
44446;SDS011;30152;52.066;5.358;2023-06-10T09:28:00;13.50;;;4.85;;
44446;SDS011;30152;52.066;5.358;2023-06-10T09:30:27;9.38;;;4.30;;
44446;SDS011;30152;52.066;5.358;2023-06-10T09:32:57;9.82;;;4.57;;
44446;SDS011;30152;52.066;5.358;2023-06-10T09:35:27;12.82;;;5.03;;
44446;SDS011;30152;52.066;5.358;2023-06-10T09:37:54;11.73;;;4.85;;
44446;SDS011;30152;52.066;5.358;2023-06-10T09:40:20;13.70;;;5.10;;
44446;SDS011;30152;52.066;5.358;2023-06-10T09:42:46;10.15;;;4.35;;
44446;SDS011;30152;52.066;5.358;2023-06-10T09:45:19;8.30;;;4.47;;
44446;SDS011;30152;52.066;5.358;2023-06-10T09:47:50;11.10;;;4.55;;
44446;SDS011;30152;52.066;5.358;2023-06-10T09:50:17;8.75;;;4.53;;
44446;SDS011;30152;52.066;5.358;2023-06-10T09:52:43;12.05;;;4.35;;
44446;SDS011;30152;52.066;5.358;2023-06-10T09:55:11;12.95;;;4.50;;
44446;SDS011;30152;52.066;5.358;2023-06-10T09:57:37;8.63;;;4.32;;
44446;SDS011;30152;52.066;5.358;2023-06-10T10:00:08;10.13;;;3.83;;
44446;SDS011;30152;52.066;5.358;2023-06-10T10:02:53;9.38;;;4.57;;
44446;SDS011;30152;52.066;5.358;2023-06-10T10:05:21;8.15;;;4.38;;
44446;SDS011;30152;52.066;5.358;2023-06-10T10:07:47;10.57;;;5.40;;
44446;SDS011;30152;52.066;5.358;2023-06-10T10:10:14;8.38;;;4.20;;
44446;SDS011;30152;52.066;5.358;2023-06-10T10:12:41;11.93;;;4.95;;
44446;SDS011;30152;52.066;5.358;2023-06-10T10:15:07;12.43;;;5.15;;
44446;SDS011;30152;52.066;5.358;2023-06-10T10:17:40;14.23;;;4.32;;
44446;SDS011;30152;52.066;5.358;2023-06-10T10:20:06;10.40;;;4.40;;
44446;SDS011;30152;52.066;5.358;2023-06-10T10:22:37;10.82;;;4.28;;
44446;SDS011;30152;52.066;5.358;2023-06-10T10:25:07;11.27;;;4.78;;
44446;SDS011;30152;52.066;5.358;2023-06-10T10:27:35;8.75;;;4.00;;
44446;SDS011;30152;52.066;5.358;2023-06-10T10:30:02;10.82;;;4.30;;
44446;SDS011;30152;52.066;5.358;2023-06-10T10:32:38;7.50;;;4.13;;
44446;SDS011;30152;52.066;5.358;2023-06-10T10:35:08;11.13;;;3.95;;
44446;SDS011;30152;52.066;5.358;2023-06-10T10:37:35;9.68;;;3.53;;
44446;SDS011;30152;52.066;5.358;2023-06-10T10:40:01;10.18;;;4.38;;
44446;SDS011;30152;52.066;5.358;2023-06-10T10:42:28;8.75;;;4.20;;
44446;SDS011;30152;52.066;5.358;2023-06-10T10:44:54;9.35;;;4.10;;
44446;SDS011;30152;52.066;5.358;2023-06-10T10:47:20;10.07;;;4.03;;
44446;SDS011;30152;52.066;5.358;2023-06-10T10:49:48;8.02;;;4.63;;
44446;SDS011;30152;52.066;5.358;2023-06-10T10:52:15;6.75;;;3.58;;
44446;SDS011;30152;52.066;5.358;2023-06-10T10:54:45;9.20;;;3.67;;
44446;SDS011;30152;52.066;5.358;2023-06-10T10:57:16;9.82;;;4.20;;
44446;SDS011;30152;52.066;5.358;2023-06-10T10:59:43;9.63;;;4.20;;
44446;SDS011;30152;52.066;5.358;2023-06-10T11:02:09;7.90;;;4.05;;
44446;SDS011;30152;52.066;5.358;2023-06-10T11:04:35;7.72;;;3.47;;
44446;SDS011;30152;52.066;5.358;2023-06-10T11:07:10;11.60;;;4.43;;
44446;SDS011;30152;52.066;5.358;2023-06-10T11:09:36;9.70;;;4.60;;
44446;SDS011;30152;52.066;5.358;2023-06-10T11:12:02;10.00;;;4.25;;
44446;SDS011;30152;52.066;5.358;2023-06-10T11:14:31;8.05;;;3.90;;
44446;SDS011;30152;52.066;5.358;2023-06-10T11:16:57;10.20;;;4.15;;
44446;SDS011;30152;52.066;5.358;2023-06-10T11:19:36;8.68;;;4.03;;
44446;SDS011;30152;52.066;5.358;2023-06-10T11:22:05;7.50;;;3.83;;
44446;SDS011;30152;52.066;5.358;2023-06-10T11:24:32;7.78;;;3.72;;
44446;SDS011;30152;52.066;5.358;2023-06-10T11:29:54;7.35;;;3.72;;
44446;SDS011;30152;52.066;5.358;2023-06-10T11:32:20;7.60;;;3.58;;
44446;SDS011;30152;52.066;5.358;2023-06-10T11:34:51;9.38;;;4.40;;
44446;SDS011;30152;52.066;5.358;2023-06-10T11:37:18;8.57;;;4.57;;
44446;SDS011;30152;52.066;5.358;2023-06-10T11:39:44;9.70;;;4.03;;
44446;SDS011;30152;52.066;5.358;2023-06-10T11:42:10;10.95;;;4.20;;
44446;SDS011;30152;52.066;5.358;2023-06-10T11:44:36;9.38;;;3.70;;
44446;SDS011;30152;52.066;5.358;2023-06-10T11:47:02;14.65;;;4.18;;
44446;SDS011;30152;52.066;5.358;2023-06-10T11:49:28;8.55;;;3.88;;
44446;SDS011;30152;52.066;5.358;2023-06-10T11:51:54;8.80;;;3.88;;
44446;SDS011;30152;52.066;5.358;2023-06-10T11:54:21;9.55;;;3.97;;
44446;SDS011;30152;52.066;5.358;2023-06-10T11:56:47;8.48;;;3.88;;
44446;SDS011;30152;52.066;5.358;2023-06-10T11:59:13;7.28;;;3.67;;
44446;SDS011;30152;52.066;5.358;2023-06-10T12:01:45;8.10;;;3.92;;
44446;SDS011;30152;52.066;5.358;2023-06-10T12:04:15;7.20;;;4.25;;
44446;SDS011;30152;52.066;5.358;2023-06-10T12:06:44;10.30;;;4.30;;
44446;SDS011;30152;52.066;5.358;2023-06-10T12:09:18;11.43;;;4.20;;
44446;SDS011;30152;52.066;5.358;2023-06-10T12:11:45;7.20;;;3.85;;
44446;SDS011;30152;52.066;5.358;2023-06-10T12:14:11;10.10;;;3.90;;
44446;SDS011;30152;52.066;5.358;2023-06-10T12:16:37;9.90;;;3.60;;
44446;SDS011;30152;52.066;5.358;2023-06-10T12:19:03;7.78;;;3.80;;
44446;SDS011;30152;52.066;5.358;2023-06-10T12:21:31;10.93;;;4.10;;
44446;SDS011;30152;52.066;5.358;2023-06-10T12:26:43;8.82;;;3.60;;
44446;SDS011;30152;52.066;5.358;2023-06-10T12:29:16;8.65;;;3.92;;
44446;SDS011;30152;52.066;5.358;2023-06-10T12:36:54;11.07;;;3.80;;
44446;SDS011;30152;52.066;5.358;2023-06-10T12:39:21;10.07;;;4.05;;
44446;SDS011;30152;52.066;5.358;2023-06-10T12:41:51;7.63;;;4.13;;
44446;SDS011;30152;52.066;5.358;2023-06-10T12:44:16;10.00;;;4.13;;
44446;SDS011;30152;52.066;5.358;2023-06-10T12:46:42;12.55;;;3.80;;
44446;SDS011;30152;52.066;5.358;2023-06-10T12:49:18;8.02;;;3.65;;
44446;SDS011;30152;52.066;5.358;2023-06-10T12:51:44;9.18;;;3.78;;
44446;SDS011;30152;52.066;5.358;2023-06-10T12:54:11;8.00;;;3.67;;
44446;SDS011;30152;52.066;5.358;2023-06-10T12:56:37;12.15;;;3.83;;
44446;SDS011;30152;52.066;5.358;2023-06-10T12:59:03;11.85;;;4.43;;
44446;SDS011;30152;52.066;5.358;2023-06-10T13:01:29;9.25;;;4.55;;
44446;SDS011;30152;52.066;5.358;2023-06-10T13:03:56;6.63;;;3.67;;
44446;SDS011;30152;52.066;5.358;2023-06-10T13:06:22;8.93;;;4.03;;
44446;SDS011;30152;52.066;5.358;2023-06-10T13:08:48;7.13;;;3.72;;
44446;SDS011;30152;52.066;5.358;2023-06-10T13:11:15;8.63;;;4.25;;
44446;SDS011;30152;52.066;5.358;2023-06-10T13:13:42;9.40;;;3.85;;
44446;SDS011;30152;52.066;5.358;2023-06-10T13:16:07;10.63;;;3.75;;
44446;SDS011;30152;52.066;5.358;2023-06-10T13:18:34;9.20;;;3.95;;
44446;SDS011;30152;52.066;5.358;2023-06-10T13:21:05;11.50;;;4.10;;
44446;SDS011;30152;52.066;5.358;2023-06-10T13:23:31;7.57;;;4.38;;
44446;SDS011;30152;52.066;5.358;2023-06-10T13:25:58;9.07;;;4.22;;
44446;SDS011;30152;52.066;5.358;2023-06-10T13:28:24;10.07;;;4.30;;
44446;SDS011;30152;52.066;5.358;2023-06-10T13:30:50;8.40;;;4.15;;
44446;SDS011;30152;52.066;5.358;2023-06-10T13:33:16;6.15;;;3.90;;
44446;SDS011;30152;52.066;5.358;2023-06-10T13:35:42;7.07;;;3.97;;
44446;SDS011;30152;52.066;5.358;2023-06-10T13:38:09;8.75;;;4.00;;
44446;SDS011;30152;52.066;5.358;2023-06-10T13:40:35;7.97;;;4.20;;
44446;SDS011;30152;52.066;5.358;2023-06-10T13:43:01;11.20;;;4.45;;
44446;SDS011;30152;52.066;5.358;2023-06-10T13:45:27;9.10;;;4.40;;
44446;SDS011;30152;52.066;5.358;2023-06-10T13:47:53;9.80;;;4.28;;
44446;SDS011;30152;52.066;5.358;2023-06-10T13:50:19;8.98;;;3.58;;
44446;SDS011;30152;52.066;5.358;2023-06-10T13:52:45;9.82;;;3.90;;
44446;SDS011;30152;52.066;5.358;2023-06-10T13:55:11;6.55;;;3.78;;
44446;SDS011;30152;52.066;5.358;2023-06-10T13:57:37;8.70;;;4.18;;
44446;SDS011;30152;52.066;5.358;2023-06-10T14:00:03;7.40;;;4.18;;
44446;SDS011;30152;52.066;5.358;2023-06-10T14:02:29;7.75;;;3.90;;
44446;SDS011;30152;52.066;5.358;2023-06-10T14:04:55;8.68;;;4.25;;
44446;SDS011;30152;52.066;5.358;2023-06-10T14:07:21;9.75;;;4.45;;
44446;SDS011;30152;52.066;5.358;2023-06-10T14:09:47;9.27;;;3.95;;
44446;SDS011;30152;52.066;5.358;2023-06-10T14:12:13;8.65;;;4.20;;
44446;SDS011;30152;52.066;5.358;2023-06-10T14:14:39;11.05;;;4.53;;
44446;SDS011;30152;52.066;5.358;2023-06-10T14:17:06;7.65;;;3.88;;
44446;SDS011;30152;52.066;5.358;2023-06-10T14:19:33;8.77;;;4.22;;
44446;SDS011;30152;52.066;5.358;2023-06-10T14:21:59;9.20;;;4.20;;
44446;SDS011;30152;52.066;5.358;2023-06-10T14:24:25;9.57;;;3.83;;
44446;SDS011;30152;52.066;5.358;2023-06-10T14:26:51;10.07;;;3.80;;
44446;SDS011;30152;52.066;5.358;2023-06-10T14:29:17;6.22;;;3.00;;
44446;SDS011;30152;52.066;5.358;2023-06-10T14:31:44;7.80;;;3.75;;
44446;SDS011;30152;52.066;5.358;2023-06-10T14:34:10;10.07;;;3.60;;
44446;SDS011;30152;52.066;5.358;2023-06-10T14:36:36;7.78;;;3.60;;
44446;SDS011;30152;52.066;5.358;2023-06-10T14:39:02;8.48;;;3.70;;
44446;SDS011;30152;52.066;5.358;2023-06-10T14:41:29;10.10;;;4.18;;
44446;SDS011;30152;52.066;5.358;2023-06-10T14:43:55;7.82;;;3.70;;
44446;SDS011;30152;52.066;5.358;2023-06-10T14:46:21;7.70;;;3.92;;
44446;SDS011;30152;52.066;5.358;2023-06-10T14:48:47;6.72;;;4.00;;
44446;SDS011;30152;52.066;5.358;2023-06-10T14:51:13;6.90;;;3.97;;
44446;SDS011;30152;52.066;5.358;2023-06-10T14:53:40;9.38;;;3.45;;
44446;SDS011;30152;52.066;5.358;2023-06-10T14:56:06;10.05;;;3.97;;
44446;SDS011;30152;52.066;5.358;2023-06-10T15:10:53;6.45;;;3.20;;
44446;SDS011;30152;52.066;5.358;2023-06-10T15:13:20;7.00;;;3.58;;
44446;SDS011;30152;52.066;5.358;2023-06-10T15:15:46;11.55;;;3.97;;
44446;SDS011;30152;52.066;5.358;2023-06-10T15:18:12;7.32;;;3.78;;
44446;SDS011;30152;52.066;5.358;2023-06-10T15:20:38;6.80;;;3.58;;
44446;SDS011;30152;52.066;5.358;2023-06-10T15:23:04;8.57;;;3.67;;
44446;SDS011;30152;52.066;5.358;2023-06-10T15:25:30;7.75;;;3.40;;
44446;SDS011;30152;52.066;5.358;2023-06-10T15:27:56;9.73;;;3.53;;
44446;SDS011;30152;52.066;5.358;2023-06-10T15:30:22;7.93;;;3.83;;
44446;SDS011;30152;52.066;5.358;2023-06-10T15:32:48;6.40;;;3.30;;
44446;SDS011;30152;52.066;5.358;2023-06-10T15:35:14;8.02;;;3.47;;
44446;SDS011;30152;52.066;5.358;2023-06-10T15:37:40;8.80;;;4.00;;
44446;SDS011;30152;52.066;5.358;2023-06-10T15:40:06;6.32;;;3.25;;
44446;SDS011;30152;52.066;5.358;2023-06-10T15:42:32;7.22;;;3.42;;
44446;SDS011;30152;52.066;5.358;2023-06-10T15:44:58;7.72;;;3.67;;
44446;SDS011;30152;52.066;5.358;2023-06-10T15:47:24;8.23;;;3.50;;
44446;SDS011;30152;52.066;5.358;2023-06-10T15:49:51;6.20;;;3.15;;
44446;SDS011;30152;52.066;5.358;2023-06-10T15:52:17;10.13;;;3.88;;
44446;SDS011;30152;52.066;5.358;2023-06-10T15:54:44;6.13;;;2.85;;
44446;SDS011;30152;52.066;5.358;2023-06-10T15:57:10;8.80;;;3.55;;
44446;SDS011;30152;52.066;5.358;2023-06-10T15:59:35;6.63;;;3.58;;
44446;SDS011;30152;52.066;5.358;2023-06-10T16:02:01;8.25;;;3.58;;
44446;SDS011;30152;52.066;5.358;2023-06-10T16:04:28;8.30;;;3.70;;
44446;SDS011;30152;52.066;5.358;2023-06-10T16:06:54;8.70;;;3.10;;
44446;SDS011;30152;52.066;5.358;2023-06-10T16:09:21;7.75;;;3.63;;
44446;SDS011;30152;52.066;5.358;2023-06-10T16:11:47;8.65;;;3.60;;
44446;SDS011;30152;52.066;5.358;2023-06-10T16:14:13;7.50;;;3.40;;
44446;SDS011;30152;52.066;5.358;2023-06-10T16:16:39;10.50;;;3.13;;
44446;SDS011;30152;52.066;5.358;2023-06-10T16:19:05;8.75;;;3.20;;
44446;SDS011;30152;52.066;5.358;2023-06-10T16:21:31;6.18;;;3.30;;
44446;SDS011;30152;52.066;5.358;2023-06-10T16:23:57;6.53;;;3.42;;
44446;SDS011;30152;52.066;5.358;2023-06-10T16:26:23;7.25;;;3.50;;
44446;SDS011;30152;52.066;5.358;2023-06-10T16:28:51;7.15;;;3.60;;
44446;SDS011;30152;52.066;5.358;2023-06-10T16:31:17;8.20;;;4.03;;
44446;SDS011;30152;52.066;5.358;2023-06-10T16:33:43;8.50;;;3.92;;
44446;SDS011;30152;52.066;5.358;2023-06-10T16:36:09;8.70;;;3.42;;
44446;SDS011;30152;52.066;5.358;2023-06-10T16:38:35;10.38;;;4.20;;
44446;SDS011;30152;52.066;5.358;2023-06-10T16:41:01;8.35;;;4.10;;
44446;SDS011;30152;52.066;5.358;2023-06-10T16:43:26;7.55;;;3.50;;
44446;SDS011;30152;52.066;5.358;2023-06-10T16:45:52;8.13;;;3.97;;
44446;SDS011;30152;52.066;5.358;2023-06-10T16:48:20;7.47;;;3.80;;
44446;SDS011;30152;52.066;5.358;2023-06-10T16:50:46;7.60;;;3.85;;
44446;SDS011;30152;52.066;5.358;2023-06-10T16:53:12;10.80;;;4.13;;
44446;SDS011;30152;52.066;5.358;2023-06-10T16:55:38;12.10;;;4.07;;
44446;SDS011;30152;52.066;5.358;2023-06-10T16:58:06;8.50;;;3.72;;
44446;SDS011;30152;52.066;5.358;2023-06-10T17:00:32;9.70;;;4.13;;
44446;SDS011;30152;52.066;5.358;2023-06-10T17:02:58;10.93;;;3.78;;
44446;SDS011;30152;52.066;5.358;2023-06-10T17:05:24;8.10;;;4.28;;
44446;SDS011;30152;52.066;5.358;2023-06-10T17:07:50;7.75;;;4.05;;
44446;SDS011;30152;52.066;5.358;2023-06-10T17:10:16;9.05;;;3.95;;
44446;SDS011;30152;52.066;5.358;2023-06-10T17:12:42;11.07;;;3.97;;
44446;SDS011;30152;52.066;5.358;2023-06-10T17:15:08;7.90;;;4.50;;
44446;SDS011;30152;52.066;5.358;2023-06-10T17:17:34;10.65;;;4.32;;
44446;SDS011;30152;52.066;5.358;2023-06-10T17:20:01;6.10;;;3.70;;
44446;SDS011;30152;52.066;5.358;2023-06-10T17:22:28;7.50;;;3.90;;
44446;SDS011;30152;52.066;5.358;2023-06-10T17:24:54;9.45;;;4.00;;
44446;SDS011;30152;52.066;5.358;2023-06-10T17:27:22;8.55;;;4.40;;
44446;SDS011;30152;52.066;5.358;2023-06-10T17:29:48;10.40;;;4.28;;
44446;SDS011;30152;52.066;5.358;2023-06-10T17:32:14;6.40;;;3.58;;
44446;SDS011;30152;52.066;5.358;2023-06-10T17:34:41;8.68;;;4.22;;
44446;SDS011;30152;52.066;5.358;2023-06-10T17:37:07;8.98;;;3.80;;
44446;SDS011;30152;52.066;5.358;2023-06-10T17:39:33;8.20;;;3.80;;
44446;SDS011;30152;52.066;5.358;2023-06-10T17:41:59;8.15;;;3.90;;
44446;SDS011;30152;52.066;5.358;2023-06-10T17:44:24;5.90;;;3.40;;
44446;SDS011;30152;52.066;5.358;2023-06-10T17:46:53;10.05;;;3.63;;
44446;SDS011;30152;52.066;5.358;2023-06-10T17:49:22;8.32;;;4.25;;
44446;SDS011;30152;52.066;5.358;2023-06-10T17:51:51;8.73;;;4.15;;
44446;SDS011;30152;52.066;5.358;2023-06-10T17:54:18;10.65;;;3.90;;
44446;SDS011;30152;52.066;5.358;2023-06-10T17:56:44;7.47;;;3.90;;
44446;SDS011;30152;52.066;5.358;2023-06-10T17:59:11;6.82;;;3.90;;
44446;SDS011;30152;52.066;5.358;2023-06-10T18:01:37;6.78;;;3.78;;
44446;SDS011;30152;52.066;5.358;2023-06-10T18:04:04;8.88;;;4.05;;
44446;SDS011;30152;52.066;5.358;2023-06-10T18:06:30;9.57;;;4.22;;
44446;SDS011;30152;52.066;5.358;2023-06-10T18:08:57;6.68;;;3.80;;
44446;SDS011;30152;52.066;5.358;2023-06-10T18:11:23;10.75;;;4.15;;
44446;SDS011;30152;52.066;5.358;2023-06-10T18:13:52;8.82;;;4.55;;
44446;SDS011;30152;52.066;5.358;2023-06-10T18:16:18;8.02;;;3.85;;
44446;SDS011;30152;52.066;5.358;2023-06-10T18:18:43;8.30;;;3.80;;
44446;SDS011;30152;52.066;5.358;2023-06-10T18:21:14;9.85;;;4.03;;
44446;SDS011;30152;52.066;5.358;2023-06-10T18:23:40;8.95;;;3.90;;
44446;SDS011;30152;52.066;5.358;2023-06-10T18:26:06;9.57;;;4.13;;
44446;SDS011;30152;52.066;5.358;2023-06-10T18:28:32;7.40;;;4.60;;
44446;SDS011;30152;52.066;5.358;2023-06-10T18:30:58;9.45;;;3.88;;
44446;SDS011;30152;52.066;5.358;2023-06-10T18:33:25;7.18;;;3.88;;
44446;SDS011;30152;52.066;5.358;2023-06-10T18:35:51;7.97;;;4.07;;
44446;SDS011;30152;52.066;5.358;2023-06-10T18:38:17;19.77;;;4.43;;
44446;SDS011;30152;52.066;5.358;2023-06-10T18:40:43;10.88;;;4.22;;
44446;SDS011;30152;52.066;5.358;2023-06-10T18:43:09;11.15;;;3.97;;
44446;SDS011;30152;52.066;5.358;2023-06-10T18:45:36;7.93;;;3.83;;
44446;SDS011;30152;52.066;5.358;2023-06-10T18:48:02;10.25;;;4.45;;
44446;SDS011;30152;52.066;5.358;2023-06-10T18:50:28;8.80;;;3.90;;
44446;SDS011;30152;52.066;5.358;2023-06-10T18:52:55;7.78;;;3.72;;
44446;SDS011;30152;52.066;5.358;2023-06-10T18:55:21;6.50;;;3.38;;
44446;SDS011;30152;52.066;5.358;2023-06-10T18:57:47;7.38;;;4.03;;
44446;SDS011;30152;52.066;5.358;2023-06-10T19:00:13;10.50;;;4.30;;
44446;SDS011;30152;52.066;5.358;2023-06-10T19:02:39;9.25;;;3.80;;
44446;SDS011;30152;52.066;5.358;2023-06-10T19:05:07;7.30;;;3.55;;
44446;SDS011;30152;52.066;5.358;2023-06-10T19:07:34;8.90;;;4.10;;
44446;SDS011;30152;52.066;5.358;2023-06-10T19:10:00;9.27;;;3.88;;
44446;SDS011;30152;52.066;5.358;2023-06-10T19:12:26;12.27;;;4.78;;
44446;SDS011;30152;52.066;5.358;2023-06-10T19:14:52;7.93;;;3.78;;
44446;SDS011;30152;52.066;5.358;2023-06-10T19:17:18;6.75;;;3.60;;
44446;SDS011;30152;52.066;5.358;2023-06-10T19:19:44;8.38;;;3.90;;
44446;SDS011;30152;52.066;5.358;2023-06-10T19:22:10;11.60;;;3.80;;
44446;SDS011;30152;52.066;5.358;2023-06-10T19:24:36;9.95;;;4.05;;
44446;SDS011;30152;52.066;5.358;2023-06-10T19:27:05;6.47;;;3.38;;
44446;SDS011;30152;52.066;5.358;2023-06-10T19:29:31;8.48;;;4.20;;
44446;SDS011;30152;52.066;5.358;2023-06-10T19:31:57;9.48;;;4.30;;
44446;SDS011;30152;52.066;5.358;2023-06-10T19:34:23;8.63;;;4.20;;
44446;SDS011;30152;52.066;5.358;2023-06-10T19:36:50;8.60;;;4.13;;
44446;SDS011;30152;52.066;5.358;2023-06-10T19:39:15;8.43;;;3.92;;
44446;SDS011;30152;52.066;5.358;2023-06-10T19:41:42;9.00;;;4.18;;
44446;SDS011;30152;52.066;5.358;2023-06-10T19:44:08;7.43;;;3.90;;
44446;SDS011;30152;52.066;5.358;2023-06-10T19:46:35;10.18;;;4.80;;
44446;SDS011;30152;52.066;5.358;2023-06-10T19:49:01;9.18;;;4.00;;
44446;SDS011;30152;52.066;5.358;2023-06-10T19:51:28;8.98;;;3.90;;
44446;SDS011;30152;52.066;5.358;2023-06-10T19:53:54;8.77;;;4.35;;
44446;SDS011;30152;52.066;5.358;2023-06-10T19:56:21;8.77;;;4.47;;
44446;SDS011;30152;52.066;5.358;2023-06-10T19:58:50;13.70;;;5.63;;
44446;SDS011;30152;52.066;5.358;2023-06-10T20:01:16;9.95;;;5.00;;
44446;SDS011;30152;52.066;5.358;2023-06-10T20:03:42;10.80;;;5.03;;
44446;SDS011;30152;52.066;5.358;2023-06-10T20:06:08;9.18;;;4.75;;
44446;SDS011;30152;52.066;5.358;2023-06-10T20:08:34;10.35;;;5.05;;
44446;SDS011;30152;52.066;5.358;2023-06-10T20:11:00;10.07;;;5.15;;
44446;SDS011;30152;52.066;5.358;2023-06-10T20:13:26;12.55;;;5.30;;
44446;SDS011;30152;52.066;5.358;2023-06-10T20:15:53;14.77;;;4.90;;
44446;SDS011;30152;52.066;5.358;2023-06-10T20:18:20;9.27;;;4.80;;
44446;SDS011;30152;52.066;5.358;2023-06-10T20:20:47;9.77;;;4.78;;
44446;SDS011;30152;52.066;5.358;2023-06-10T20:23:13;12.00;;;4.93;;
44446;SDS011;30152;52.066;5.358;2023-06-10T20:25:39;9.43;;;4.45;;
44446;SDS011;30152;52.066;5.358;2023-06-10T20:28:05;8.23;;;4.78;;
44446;SDS011;30152;52.066;5.358;2023-06-10T20:30:31;7.93;;;4.35;;
44446;SDS011;30152;52.066;5.358;2023-06-10T20:32:57;7.30;;;4.05;;
44446;SDS011;30152;52.066;5.358;2023-06-10T20:35:23;11.60;;;4.72;;
44446;SDS011;30152;52.066;5.358;2023-06-10T20:37:49;11.52;;;4.53;;
44446;SDS011;30152;52.066;5.358;2023-06-10T20:40:17;8.82;;;4.68;;
44446;SDS011;30152;52.066;5.358;2023-06-10T20:42:43;10.95;;;4.53;;
44446;SDS011;30152;52.066;5.358;2023-06-10T20:45:09;8.40;;;4.55;;
44446;SDS011;30152;52.066;5.358;2023-06-10T20:47:35;11.05;;;4.60;;
44446;SDS011;30152;52.066;5.358;2023-06-10T20:50:02;11.50;;;5.32;;
44446;SDS011;30152;52.066;5.358;2023-06-10T20:52:28;10.52;;;4.93;;
44446;SDS011;30152;52.066;5.358;2023-06-10T20:54:54;11.40;;;5.47;;
44446;SDS011;30152;52.066;5.358;2023-06-10T20:57:20;10.27;;;4.85;;
44446;SDS011;30152;52.066;5.358;2023-06-10T20:59:46;10.57;;;5.32;;
44446;SDS011;30152;52.066;5.358;2023-06-10T21:02:13;10.20;;;4.70;;
44446;SDS011;30152;52.066;5.358;2023-06-10T21:04:41;8.57;;;4.68;;
44446;SDS011;30152;52.066;5.358;2023-06-10T21:07:07;11.23;;;4.88;;
44446;SDS011;30152;52.066;5.358;2023-06-10T21:09:33;9.07;;;4.85;;
44446;SDS011;30152;52.066;5.358;2023-06-10T21:12:00;9.02;;;4.80;;
44446;SDS011;30152;52.066;5.358;2023-06-10T21:14:26;9.50;;;4.85;;
44446;SDS011;30152;52.066;5.358;2023-06-10T21:16:52;10.30;;;4.93;;
44446;SDS011;30152;52.066;5.358;2023-06-10T21:19:18;9.55;;;4.63;;
44446;SDS011;30152;52.066;5.358;2023-06-10T21:21:46;8.93;;;4.85;;
44446;SDS011;30152;52.066;5.358;2023-06-10T21:24:14;10.65;;;4.90;;
44446;SDS011;30152;52.066;5.358;2023-06-10T21:26:40;8.00;;;4.70;;
44446;SDS011;30152;52.066;5.358;2023-06-10T21:29:06;11.02;;;5.20;;
44446;SDS011;30152;52.066;5.358;2023-06-10T21:31:32;9.88;;;4.70;;
44446;SDS011;30152;52.066;5.358;2023-06-10T21:33:58;11.05;;;5.30;;
44446;SDS011;30152;52.066;5.358;2023-06-10T21:36:24;7.50;;;4.10;;
44446;SDS011;30152;52.066;5.358;2023-06-10T21:38:50;10.10;;;4.68;;
44446;SDS011;30152;52.066;5.358;2023-06-10T21:41:16;8.07;;;4.30;;
